sensor_id;sensor_type;location;lat;lon;timestamp;P1;durP1;ratioP1;P2;durP2;ratioP2
48481;SDS011;34284;48.278;16.378;2023-05-14T00:01:00;266.87;;;171.40;;
48481;SDS011;34284;48.278;16.378;2023-05-14T00:03:26;261.10;;;167.33;;
48481;SDS011;34284;48.278;16.378;2023-05-14T00:05:52;266.10;;;170.87;;
48481;SDS011;34284;48.278;16.378;2023-05-14T00:08:18;259.40;;;168.90;;
48481;SDS011;34284;48.278;16.378;2023-05-14T00:10:44;256.30;;;163.40;;
48481;SDS011;34284;48.278;16.378;2023-05-14T00:13:10;256.73;;;164.53;;
48481;SDS011;34284;48.278;16.378;2023-05-14T00:15:36;253.67;;;162.07;;
48481;SDS011;34284;48.278;16.378;2023-05-14T00:18:02;253.77;;;162.93;;
48481;SDS011;34284;48.278;16.378;2023-05-14T00:20:29;261.63;;;164.43;;
48481;SDS011;34284;48.278;16.378;2023-05-14T00:22:55;258.33;;;163.63;;
48481;SDS011;34284;48.278;16.378;2023-05-14T00:25:21;258.50;;;161.00;;
48481;SDS011;34284;48.278;16.378;2023-05-14T00:27:47;248.80;;;163.43;;
48481;SDS011;34284;48.278;16.378;2023-05-14T00:30:13;250.00;;;163.97;;
48481;SDS011;34284;48.278;16.378;2023-05-14T00:32:39;254.00;;;161.90;;
48481;SDS011;34284;48.278;16.378;2023-05-14T00:35:05;260.70;;;165.63;;
48481;SDS011;34284;48.278;16.378;2023-05-14T00:37:31;263.43;;;159.60;;
48481;SDS011;34284;48.278;16.378;2023-05-14T00:39:57;265.30;;;162.47;;
48481;SDS011;34284;48.278;16.378;2023-05-14T00:42:23;257.13;;;159.50;;
48481;SDS011;34284;48.278;16.378;2023-05-14T00:44:50;259.80;;;157.87;;
48481;SDS011;34284;48.278;16.378;2023-05-14T00:47:17;254.00;;;155.37;;
48481;SDS011;34284;48.278;16.378;2023-05-14T00:49:43;256.93;;;160.03;;
48481;SDS011;34284;48.278;16.378;2023-05-14T00:52:09;257.97;;;160.13;;
48481;SDS011;34284;48.278;16.378;2023-05-14T00:54:36;259.23;;;161.60;;
48481;SDS011;34284;48.278;16.378;2023-05-14T00:57:02;253.80;;;160.97;;
48481;SDS011;34284;48.278;16.378;2023-05-14T00:59:29;254.27;;;157.40;;
48481;SDS011;34284;48.278;16.378;2023-05-14T01:01:55;253.27;;;159.57;;
48481;SDS011;34284;48.278;16.378;2023-05-14T01:04:21;249.87;;;159.27;;
48481;SDS011;34284;48.278;16.378;2023-05-14T01:11:59;253.70;;;162.30;;
48481;SDS011;34284;48.278;16.378;2023-05-14T01:14:44;250.50;;;162.10;;
48481;SDS011;34284;48.278;16.378;2023-05-14T01:17:13;249.53;;;160.10;;
48481;SDS011;34284;48.278;16.378;2023-05-14T01:19:44;250.27;;;160.57;;
48481;SDS011;34284;48.278;16.378;2023-05-14T01:22:11;253.70;;;160.17;;
48481;SDS011;34284;48.278;16.378;2023-05-14T01:24:38;250.63;;;159.23;;
48481;SDS011;34284;48.278;16.378;2023-05-14T01:29:52;248.67;;;159.43;;
48481;SDS011;34284;48.278;16.378;2023-05-14T01:32:20;249.63;;;157.53;;
48481;SDS011;34284;48.278;16.378;2023-05-14T01:34:48;251.10;;;164.43;;
48481;SDS011;34284;48.278;16.378;2023-05-14T01:37:15;248.47;;;162.13;;
48481;SDS011;34284;48.278;16.378;2023-05-14T01:39:42;245.93;;;161.87;;
48481;SDS011;34284;48.278;16.378;2023-05-14T01:42:08;254.63;;;163.70;;
48481;SDS011;34284;48.278;16.378;2023-05-14T01:44:34;260.43;;;162.67;;
48481;SDS011;34284;48.278;16.378;2023-05-14T01:47:01;254.80;;;163.47;;
48481;SDS011;34284;48.278;16.378;2023-05-14T01:49:27;245.37;;;157.80;;
48481;SDS011;34284;48.278;16.378;2023-05-14T01:51:53;257.57;;;161.30;;
48481;SDS011;34284;48.278;16.378;2023-05-14T01:54:19;255.17;;;162.97;;
48481;SDS011;34284;48.278;16.378;2023-05-14T01:56:45;247.23;;;159.00;;
48481;SDS011;34284;48.278;16.378;2023-05-14T01:59:11;250.47;;;160.90;;
48481;SDS011;34284;48.278;16.378;2023-05-14T02:01:37;246.50;;;160.03;;
48481;SDS011;34284;48.278;16.378;2023-05-14T02:04:03;254.23;;;163.13;;
48481;SDS011;34284;48.278;16.378;2023-05-14T02:06:29;256.80;;;160.70;;
48481;SDS011;34284;48.278;16.378;2023-05-14T02:08:56;249.57;;;162.07;;
48481;SDS011;34284;48.278;16.378;2023-05-14T02:11:22;250.23;;;160.87;;
48481;SDS011;34284;48.278;16.378;2023-05-14T02:13:48;242.70;;;155.13;;
48481;SDS011;34284;48.278;16.378;2023-05-14T02:16:14;248.83;;;158.60;;
48481;SDS011;34284;48.278;16.378;2023-05-14T02:18:40;246.33;;;155.67;;
48481;SDS011;34284;48.278;16.378;2023-05-14T02:21:06;244.03;;;156.73;;
48481;SDS011;34284;48.278;16.378;2023-05-14T02:23:32;246.40;;;154.53;;
48481;SDS011;34284;48.278;16.378;2023-05-14T02:25:58;255.87;;;166.30;;
48481;SDS011;34284;48.278;16.378;2023-05-14T02:28:24;251.90;;;163.00;;
48481;SDS011;34284;48.278;16.378;2023-05-14T02:30:50;248.43;;;161.10;;
48481;SDS011;34284;48.278;16.378;2023-05-14T02:33:16;245.80;;;153.93;;
48481;SDS011;34284;48.278;16.378;2023-05-14T02:35:42;260.73;;;165.63;;
48481;SDS011;34284;48.278;16.378;2023-05-14T02:38:08;255.90;;;162.03;;
48481;SDS011;34284;48.278;16.378;2023-05-14T02:40:35;250.90;;;158.83;;
48481;SDS011;34284;48.278;16.378;2023-05-14T02:43:01;248.23;;;160.47;;
48481;SDS011;34284;48.278;16.378;2023-05-14T02:45:27;252.43;;;157.73;;
48481;SDS011;34284;48.278;16.378;2023-05-14T02:47:53;251.57;;;159.07;;
48481;SDS011;34284;48.278;16.378;2023-05-14T02:50:19;251.27;;;154.03;;
48481;SDS011;34284;48.278;16.378;2023-05-14T02:52:45;249.20;;;159.63;;
48481;SDS011;34284;48.278;16.378;2023-05-14T02:55:11;251.00;;;164.80;;
48481;SDS011;34284;48.278;16.378;2023-05-14T02:57:37;251.70;;;159.10;;
48481;SDS011;34284;48.278;16.378;2023-05-14T03:00:03;256.83;;;161.13;;
48481;SDS011;34284;48.278;16.378;2023-05-14T03:02:29;248.23;;;158.07;;
48481;SDS011;34284;48.278;16.378;2023-05-14T03:04:55;248.43;;;159.40;;
48481;SDS011;34284;48.278;16.378;2023-05-14T03:07:21;250.50;;;161.53;;
48481;SDS011;34284;48.278;16.378;2023-05-14T03:09:47;244.83;;;156.20;;
48481;SDS011;34284;48.278;16.378;2023-05-14T03:12:13;246.33;;;158.90;;
48481;SDS011;34284;48.278;16.378;2023-05-14T03:14:39;262.80;;;162.97;;
48481;SDS011;34284;48.278;16.378;2023-05-14T03:17:05;256.87;;;159.70;;
48481;SDS011;34284;48.278;16.378;2023-05-14T03:19:31;255.17;;;169.47;;
48481;SDS011;34284;48.278;16.378;2023-05-14T03:21:57;253.83;;;159.50;;
48481;SDS011;34284;48.278;16.378;2023-05-14T03:24:24;247.87;;;160.20;;
48481;SDS011;34284;48.278;16.378;2023-05-14T03:26:50;246.73;;;158.37;;
48481;SDS011;34284;48.278;16.378;2023-05-14T03:29:16;243.37;;;151.60;;
48481;SDS011;34284;48.278;16.378;2023-05-14T03:31:42;257.87;;;161.80;;
48481;SDS011;34284;48.278;16.378;2023-05-14T03:34:08;257.57;;;159.03;;
48481;SDS011;34284;48.278;16.378;2023-05-14T03:36:34;262.60;;;160.10;;
48481;SDS011;34284;48.278;16.378;2023-05-14T03:39:02;246.73;;;158.33;;
48481;SDS011;34284;48.278;16.378;2023-05-14T03:41:28;244.53;;;158.90;;
48481;SDS011;34284;48.278;16.378;2023-05-14T03:43:54;240.97;;;155.17;;
48481;SDS011;34284;48.278;16.378;2023-05-14T03:46:20;241.00;;;157.27;;
48481;SDS011;34284;48.278;16.378;2023-05-14T03:48:46;247.53;;;158.70;;
48481;SDS011;34284;48.278;16.378;2023-05-14T03:51:12;246.27;;;159.20;;
48481;SDS011;34284;48.278;16.378;2023-05-14T03:53:38;244.10;;;155.60;;
48481;SDS011;34284;48.278;16.378;2023-05-14T03:56:04;248.17;;;161.30;;
48481;SDS011;34284;48.278;16.378;2023-05-14T03:58:30;244.43;;;161.20;;
48481;SDS011;34284;48.278;16.378;2023-05-14T04:00:56;244.27;;;158.33;;
48481;SDS011;34284;48.278;16.378;2023-05-14T04:03:22;240.53;;;156.53;;
48481;SDS011;34284;48.278;16.378;2023-05-14T04:05:49;239.10;;;157.70;;
48481;SDS011;34284;48.278;16.378;2023-05-14T04:08:15;245.30;;;153.53;;
48481;SDS011;34284;48.278;16.378;2023-05-14T04:10:41;245.10;;;154.50;;
48481;SDS011;34284;48.278;16.378;2023-05-14T04:13:07;245.30;;;160.07;;
48481;SDS011;34284;48.278;16.378;2023-05-14T04:15:33;243.77;;;158.87;;
48481;SDS011;34284;48.278;16.378;2023-05-14T04:18:03;247.20;;;155.87;;
48481;SDS011;34284;48.278;16.378;2023-05-14T04:20:29;239.57;;;155.77;;
48481;SDS011;34284;48.278;16.378;2023-05-14T04:22:55;248.87;;;157.97;;
48481;SDS011;34284;48.278;16.378;2023-05-14T04:25:22;243.63;;;158.10;;
48481;SDS011;34284;48.278;16.378;2023-05-14T04:27:48;239.80;;;156.27;;
48481;SDS011;34284;48.278;16.378;2023-05-14T04:30:14;241.43;;;154.73;;
48481;SDS011;34284;48.278;16.378;2023-05-14T04:32:40;244.03;;;163.00;;
48481;SDS011;34284;48.278;16.378;2023-05-14T04:35:06;249.47;;;161.80;;
48481;SDS011;34284;48.278;16.378;2023-05-14T04:37:36;252.00;;;165.73;;
48481;SDS011;34284;48.278;16.378;2023-05-14T04:40:03;257.20;;;169.40;;
48481;SDS011;34284;48.278;16.378;2023-05-14T04:42:29;250.13;;;163.97;;
48481;SDS011;34284;48.278;16.378;2023-05-14T04:44:55;243.20;;;162.47;;
48481;SDS011;34284;48.278;16.378;2023-05-14T04:47:22;244.27;;;163.80;;
48481;SDS011;34284;48.278;16.378;2023-05-14T04:49:48;246.47;;;161.30;;
48481;SDS011;34284;48.278;16.378;2023-05-14T04:52:14;247.80;;;166.27;;
48481;SDS011;34284;48.278;16.378;2023-05-14T04:54:40;247.17;;;161.27;;
48481;SDS011;34284;48.278;16.378;2023-05-14T04:57:06;247.03;;;167.57;;
48481;SDS011;34284;48.278;16.378;2023-05-14T04:59:32;245.57;;;160.60;;
48481;SDS011;34284;48.278;16.378;2023-05-14T05:01:58;245.43;;;161.13;;
48481;SDS011;34284;48.278;16.378;2023-05-14T05:04:24;249.13;;;162.77;;
48481;SDS011;34284;48.278;16.378;2023-05-14T05:06:51;247.20;;;167.27;;
48481;SDS011;34284;48.278;16.378;2023-05-14T05:09:17;252.20;;;161.10;;
48481;SDS011;34284;48.278;16.378;2023-05-14T05:11:43;251.93;;;160.67;;
48481;SDS011;34284;48.278;16.378;2023-05-14T05:14:09;244.77;;;154.60;;
48481;SDS011;34284;48.278;16.378;2023-05-14T05:16:35;253.47;;;157.67;;
48481;SDS011;34284;48.278;16.378;2023-05-14T05:19:01;242.43;;;154.40;;
48481;SDS011;34284;48.278;16.378;2023-05-14T05:21:27;242.70;;;153.33;;
48481;SDS011;34284;48.278;16.378;2023-05-14T05:23:53;241.27;;;152.80;;
48481;SDS011;34284;48.278;16.378;2023-05-14T05:26:19;249.97;;;152.33;;
48481;SDS011;34284;48.278;16.378;2023-05-14T05:28:46;249.50;;;156.73;;
48481;SDS011;34284;48.278;16.378;2023-05-14T05:31:12;255.27;;;159.00;;
48481;SDS011;34284;48.278;16.378;2023-05-14T05:33:38;239.40;;;150.07;;
48481;SDS011;34284;48.278;16.378;2023-05-14T05:36:04;246.53;;;158.27;;
48481;SDS011;34284;48.278;16.378;2023-05-14T05:38:30;241.23;;;154.63;;
48481;SDS011;34284;48.278;16.378;2023-05-14T05:40:56;242.27;;;156.70;;
48481;SDS011;34284;48.278;16.378;2023-05-14T05:43:22;243.33;;;152.97;;
48481;SDS011;34284;48.278;16.378;2023-05-14T05:45:48;247.33;;;156.73;;
48481;SDS011;34284;48.278;16.378;2023-05-14T05:48:14;243.20;;;156.93;;
48481;SDS011;34284;48.278;16.378;2023-05-14T05:50:40;245.33;;;155.90;;
48481;SDS011;34284;48.278;16.378;2023-05-14T05:53:08;259.67;;;154.30;;
48481;SDS011;34284;48.278;16.378;2023-05-14T05:55:34;252.53;;;152.87;;
48481;SDS011;34284;48.278;16.378;2023-05-14T05:58:00;243.90;;;155.10;;
48481;SDS011;34284;48.278;16.378;2023-05-14T06:00:26;247.17;;;156.40;;
48481;SDS011;34284;48.278;16.378;2023-05-14T06:02:52;249.40;;;147.40;;
48481;SDS011;34284;48.278;16.378;2023-05-14T06:05:20;248.43;;;149.83;;
48481;SDS011;34284;48.278;16.378;2023-05-14T06:07:46;250.30;;;155.17;;
48481;SDS011;34284;48.278;16.378;2023-05-14T06:10:12;243.50;;;149.13;;
48481;SDS011;34284;48.278;16.378;2023-05-14T06:12:38;251.63;;;154.77;;
48481;SDS011;34284;48.278;16.378;2023-05-14T06:15:04;244.73;;;149.23;;
48481;SDS011;34284;48.278;16.378;2023-05-14T06:17:30;242.27;;;149.63;;
48481;SDS011;34284;48.278;16.378;2023-05-14T06:19:56;249.50;;;153.57;;
48481;SDS011;34284;48.278;16.378;2023-05-14T06:22:22;245.47;;;150.03;;
48481;SDS011;34284;48.278;16.378;2023-05-14T06:24:48;251.57;;;151.20;;
48481;SDS011;34284;48.278;16.378;2023-05-14T06:27:14;242.97;;;146.77;;
48481;SDS011;34284;48.278;16.378;2023-05-14T06:29:41;250.13;;;150.87;;
48481;SDS011;34284;48.278;16.378;2023-05-14T06:32:07;249.00;;;149.50;;
48481;SDS011;34284;48.278;16.378;2023-05-14T06:34:34;244.73;;;149.27;;
48481;SDS011;34284;48.278;16.378;2023-05-14T06:37:00;246.33;;;152.60;;
48481;SDS011;34284;48.278;16.378;2023-05-14T06:39:28;248.37;;;146.53;;
48481;SDS011;34284;48.278;16.378;2023-05-14T06:41:54;248.03;;;147.07;;
48481;SDS011;34284;48.278;16.378;2023-05-14T06:44:19;251.47;;;148.07;;
48481;SDS011;34284;48.278;16.378;2023-05-14T06:46:46;361.37;;;323.67;;
48481;SDS011;34284;48.278;16.378;2023-05-14T06:49:12;251.43;;;147.63;;
48481;SDS011;34284;48.278;16.378;2023-05-14T06:51:38;247.23;;;147.57;;
48481;SDS011;34284;48.278;16.378;2023-05-14T06:54:04;245.83;;;144.50;;
48481;SDS011;34284;48.278;16.378;2023-05-14T06:56:30;241.40;;;142.00;;
48481;SDS011;34284;48.278;16.378;2023-05-14T06:58:56;245.83;;;142.87;;
48481;SDS011;34284;48.278;16.378;2023-05-14T07:01:22;244.63;;;145.00;;
48481;SDS011;34284;48.278;16.378;2023-05-14T07:03:48;241.07;;;145.17;;
48481;SDS011;34284;48.278;16.378;2023-05-14T07:06:14;248.07;;;145.90;;
48481;SDS011;34284;48.278;16.378;2023-05-14T07:08:41;250.90;;;148.73;;
48481;SDS011;34284;48.278;16.378;2023-05-14T07:11:09;257.70;;;149.37;;
48481;SDS011;34284;48.278;16.378;2023-05-14T07:13:35;247.47;;;147.07;;
48481;SDS011;34284;48.278;16.378;2023-05-14T07:16:01;251.70;;;149.17;;
48481;SDS011;34284;48.278;16.378;2023-05-14T07:18:27;246.50;;;150.10;;
48481;SDS011;34284;48.278;16.378;2023-05-14T07:20:53;247.67;;;154.67;;
48481;SDS011;34284;48.278;16.378;2023-05-14T07:23:19;246.23;;;146.77;;
48481;SDS011;34284;48.278;16.378;2023-05-14T07:25:45;243.87;;;142.93;;
48481;SDS011;34284;48.278;16.378;2023-05-14T07:28:12;254.47;;;144.83;;
48481;SDS011;34284;48.278;16.378;2023-05-14T07:30:38;261.10;;;148.43;;
48481;SDS011;34284;48.278;16.378;2023-05-14T07:33:04;250.97;;;144.80;;
48481;SDS011;34284;48.278;16.378;2023-05-14T07:35:30;237.93;;;139.90;;
48481;SDS011;34284;48.278;16.378;2023-05-14T07:37:56;245.13;;;142.03;;
48481;SDS011;34284;48.278;16.378;2023-05-14T07:40:22;249.17;;;147.07;;
48481;SDS011;34284;48.278;16.378;2023-05-14T07:42:49;260.30;;;145.53;;
48481;SDS011;34284;48.278;16.378;2023-05-14T07:45:15;245.83;;;141.53;;
48481;SDS011;34284;48.278;16.378;2023-05-14T07:47:41;245.00;;;143.47;;
48481;SDS011;34284;48.278;16.378;2023-05-14T07:50:07;246.77;;;145.07;;
48481;SDS011;34284;48.278;16.378;2023-05-14T07:52:33;240.83;;;141.37;;
48481;SDS011;34284;48.278;16.378;2023-05-14T07:55:01;241.70;;;143.27;;
48481;SDS011;34284;48.278;16.378;2023-05-14T07:57:27;248.07;;;142.67;;
48481;SDS011;34284;48.278;16.378;2023-05-14T07:59:53;251.27;;;147.13;;
48481;SDS011;34284;48.278;16.378;2023-05-14T08:02:19;245.10;;;140.63;;
48481;SDS011;34284;48.278;16.378;2023-05-14T08:04:45;243.47;;;141.43;;
48481;SDS011;34284;48.278;16.378;2023-05-14T08:07:11;253.60;;;145.33;;
48481;SDS011;34284;48.278;16.378;2023-05-14T08:09:37;239.33;;;139.90;;
48481;SDS011;34284;48.278;16.378;2023-05-14T08:12:03;242.03;;;139.30;;
48481;SDS011;34284;48.278;16.378;2023-05-14T08:14:30;240.43;;;139.87;;
48481;SDS011;34284;48.278;16.378;2023-05-14T08:16:56;242.00;;;141.00;;
48481;SDS011;34284;48.278;16.378;2023-05-14T08:19:22;249.50;;;142.07;;
48481;SDS011;34284;48.278;16.378;2023-05-14T08:21:48;241.13;;;138.50;;
48481;SDS011;34284;48.278;16.378;2023-05-14T08:24:15;246.87;;;146.53;;
48481;SDS011;34284;48.278;16.378;2023-05-14T08:26:41;250.43;;;140.43;;
48481;SDS011;34284;48.278;16.378;2023-05-14T08:29:07;332.40;;;161.60;;
48481;SDS011;34284;48.278;16.378;2023-05-14T08:31:33;307.90;;;135.50;;
48481;SDS011;34284;48.278;16.378;2023-05-14T08:33:59;303.47;;;127.97;;
48481;SDS011;34284;48.278;16.378;2023-05-14T08:36:25;328.87;;;200.33;;
48481;SDS011;34284;48.278;16.378;2023-05-14T08:38:51;306.90;;;141.23;;
48481;SDS011;34284;48.278;16.378;2023-05-14T08:41:17;242.23;;;152.47;;
48481;SDS011;34284;48.278;16.378;2023-05-14T08:43:51;245.23;;;147.80;;
48481;SDS011;34284;48.278;16.378;2023-05-14T08:46:22;254.10;;;155.77;;
48481;SDS011;34284;48.278;16.378;2023-05-14T08:48:55;241.23;;;163.53;;
48481;SDS011;34284;48.278;16.378;2023-05-14T08:51:22;260.27;;;207.97;;
48481;SDS011;34284;48.278;16.378;2023-05-14T08:53:49;241.53;;;161.87;;
48481;SDS011;34284;48.278;16.378;2023-05-14T08:56:15;244.17;;;166.20;;
48481;SDS011;34284;48.278;16.378;2023-05-14T08:58:43;244.47;;;166.63;;
48481;SDS011;34284;48.278;16.378;2023-05-14T09:01:09;243.73;;;162.93;;
48481;SDS011;34284;48.278;16.378;2023-05-14T09:03:35;238.40;;;166.97;;
48481;SDS011;34284;48.278;16.378;2023-05-14T09:06:01;239.83;;;163.70;;
48481;SDS011;34284;48.278;16.378;2023-05-14T09:08:28;239.83;;;170.67;;
48481;SDS011;34284;48.278;16.378;2023-05-14T09:10:54;241.90;;;174.77;;
48481;SDS011;34284;48.278;16.378;2023-05-14T09:13:20;243.47;;;173.73;;
48481;SDS011;34284;48.278;16.378;2023-05-14T09:15:46;252.57;;;155.47;;
48481;SDS011;34284;48.278;16.378;2023-05-14T09:18:13;250.27;;;167.83;;
48481;SDS011;34284;48.278;16.378;2023-05-14T09:20:39;248.13;;;169.53;;
48481;SDS011;34284;48.278;16.378;2023-05-14T09:23:05;247.30;;;165.83;;
48481;SDS011;34284;48.278;16.378;2023-05-14T09:25:31;243.87;;;171.30;;
48481;SDS011;34284;48.278;16.378;2023-05-14T09:27:57;240.63;;;174.07;;
48481;SDS011;34284;48.278;16.378;2023-05-14T09:30:24;253.20;;;189.57;;
48481;SDS011;34284;48.278;16.378;2023-05-14T09:32:52;250.60;;;178.37;;
48481;SDS011;34284;48.278;16.378;2023-05-14T09:37:45;243.83;;;170.57;;
48481;SDS011;34284;48.278;16.378;2023-05-14T09:40:12;237.50;;;160.90;;
48481;SDS011;34284;48.278;16.378;2023-05-14T09:42:38;249.60;;;172.13;;
48481;SDS011;34284;48.278;16.378;2023-05-14T09:45:06;246.43;;;171.70;;
48481;SDS011;34284;48.278;16.378;2023-05-14T09:47:32;250.43;;;175.70;;
48481;SDS011;34284;48.278;16.378;2023-05-14T09:49:58;243.10;;;174.23;;
48481;SDS011;34284;48.278;16.378;2023-05-14T09:52:24;246.83;;;175.60;;
48481;SDS011;34284;48.278;16.378;2023-05-14T09:54:51;245.30;;;169.17;;
48481;SDS011;34284;48.278;16.378;2023-05-14T09:57:17;260.43;;;178.13;;
48481;SDS011;34284;48.278;16.378;2023-05-14T09:59:43;244.10;;;174.13;;
48481;SDS011;34284;48.278;16.378;2023-05-14T10:02:12;250.30;;;181.00;;
48481;SDS011;34284;48.278;16.378;2023-05-14T10:04:40;250.57;;;182.70;;
48481;SDS011;34284;48.278;16.378;2023-05-14T10:07:07;245.80;;;176.80;;
48481;SDS011;34284;48.278;16.378;2023-05-14T10:09:33;251.60;;;189.63;;
48481;SDS011;34284;48.278;16.378;2023-05-14T10:12:00;245.90;;;181.17;;
48481;SDS011;34284;48.278;16.378;2023-05-14T10:14:28;250.80;;;177.60;;
48481;SDS011;34284;48.278;16.378;2023-05-14T10:16:56;255.27;;;177.37;;
48481;SDS011;34284;48.278;16.378;2023-05-14T10:19:23;249.30;;;183.97;;
48481;SDS011;34284;48.278;16.378;2023-05-14T10:21:56;247.60;;;181.43;;
48481;SDS011;34284;48.278;16.378;2023-05-14T10:24:22;252.47;;;184.43;;
48481;SDS011;34284;48.278;16.378;2023-05-14T10:26:49;252.83;;;190.77;;
48481;SDS011;34284;48.278;16.378;2023-05-14T10:29:15;251.37;;;175.37;;
48481;SDS011;34284;48.278;16.378;2023-05-14T10:34:30;252.93;;;183.87;;
48481;SDS011;34284;48.278;16.378;2023-05-14T10:37:00;255.87;;;185.87;;
48481;SDS011;34284;48.278;16.378;2023-05-14T10:39:42;249.47;;;187.53;;
48481;SDS011;34284;48.278;16.378;2023-05-14T10:42:12;249.80;;;181.15;;
48481;SDS011;34284;48.278;16.378;2023-05-14T10:45:00;246.83;;;186.93;;
48481;SDS011;34284;48.278;16.378;2023-05-14T10:47:25;257.00;;;188.00;;
48481;SDS011;34284;48.278;16.378;2023-05-14T10:49:52;250.93;;;190.97;;
48481;SDS011;34284;48.278;16.378;2023-05-14T10:52:20;245.10;;;187.63;;
48481;SDS011;34284;48.278;16.378;2023-05-14T10:57:19;245.43;;;188.40;;
48481;SDS011;34284;48.278;16.378;2023-05-14T10:59:46;254.50;;;185.77;;
48481;SDS011;34284;48.278;16.378;2023-05-14T11:02:19;252.87;;;185.40;;
48481;SDS011;34284;48.278;16.378;2023-05-14T11:04:53;277.33;;;187.50;;
48481;SDS011;34284;48.278;16.378;2023-05-14T11:07:22;261.63;;;190.87;;
48481;SDS011;34284;48.278;16.378;2023-05-14T11:09:49;257.37;;;180.13;;
48481;SDS011;34284;48.278;16.378;2023-05-14T11:12:16;253.00;;;182.30;;
48481;SDS011;34284;48.278;16.378;2023-05-14T11:14:43;258.37;;;191.57;;
48481;SDS011;34284;48.278;16.378;2023-05-14T11:17:10;262.30;;;187.87;;
48481;SDS011;34284;48.278;16.378;2023-05-14T11:19:36;248.17;;;178.43;;
48481;SDS011;34284;48.278;16.378;2023-05-14T11:22:03;246.37;;;180.17;;
48481;SDS011;34284;48.278;16.378;2023-05-14T11:24:29;258.83;;;188.67;;
48481;SDS011;34284;48.278;16.378;2023-05-14T11:26:55;260.13;;;184.13;;
48481;SDS011;34284;48.278;16.378;2023-05-14T11:29:21;257.73;;;185.50;;
48481;SDS011;34284;48.278;16.378;2023-05-14T11:31:48;254.30;;;188.27;;
48481;SDS011;34284;48.278;16.378;2023-05-14T11:34:14;259.13;;;185.20;;
48481;SDS011;34284;48.278;16.378;2023-05-14T11:36:40;253.27;;;183.30;;
48481;SDS011;34284;48.278;16.378;2023-05-14T11:39:06;264.70;;;191.73;;
48481;SDS011;34284;48.278;16.378;2023-05-14T11:41:32;299.93;;;193.77;;
48481;SDS011;34284;48.278;16.378;2023-05-14T11:43:58;258.13;;;184.77;;
48481;SDS011;34284;48.278;16.378;2023-05-14T11:46:24;264.07;;;189.73;;
48481;SDS011;34284;48.278;16.378;2023-05-14T11:48:52;259.77;;;185.47;;
48481;SDS011;34284;48.278;16.378;2023-05-14T11:51:18;265.63;;;192.17;;
48481;SDS011;34284;48.278;16.378;2023-05-14T11:53:44;267.33;;;191.60;;
48481;SDS011;34284;48.278;16.378;2023-05-14T11:56:11;257.70;;;197.07;;
48481;SDS011;34284;48.278;16.378;2023-05-14T11:58:37;259.93;;;194.97;;
48481;SDS011;34284;48.278;16.378;2023-05-14T12:01:03;261.07;;;195.67;;
48481;SDS011;34284;48.278;16.378;2023-05-14T12:03:29;266.47;;;201.60;;
48481;SDS011;34284;48.278;16.378;2023-05-14T12:08:22;271.13;;;199.43;;
48481;SDS011;34284;48.278;16.378;2023-05-14T12:10:51;263.53;;;202.17;;
48481;SDS011;34284;48.278;16.378;2023-05-14T12:13:17;269.27;;;195.73;;
48481;SDS011;34284;48.278;16.378;2023-05-14T12:15:47;252.90;;;194.50;;
48481;SDS011;34284;48.278;16.378;2023-05-14T12:18:18;263.63;;;194.77;;
48481;SDS011;34284;48.278;16.378;2023-05-14T12:20:47;252.93;;;195.33;;
48481;SDS011;34284;48.278;16.378;2023-05-14T12:23:15;258.87;;;191.77;;
48481;SDS011;34284;48.278;16.378;2023-05-14T12:25:50;249.47;;;192.47;;
48481;SDS011;34284;48.278;16.378;2023-05-14T12:28:16;264.43;;;197.87;;
48481;SDS011;34284;48.278;16.378;2023-05-14T12:30:43;262.73;;;189.80;;
48481;SDS011;34284;48.278;16.378;2023-05-14T12:33:10;246.70;;;187.93;;
48481;SDS011;34284;48.278;16.378;2023-05-14T12:35:36;257.97;;;191.20;;
48481;SDS011;34284;48.278;16.378;2023-05-14T12:38:02;262.53;;;197.80;;
48481;SDS011;34284;48.278;16.378;2023-05-14T12:40:28;261.47;;;197.87;;
48481;SDS011;34284;48.278;16.378;2023-05-14T12:42:54;265.00;;;201.10;;
48481;SDS011;34284;48.278;16.378;2023-05-14T12:45:20;268.23;;;208.33;;
48481;SDS011;34284;48.278;16.378;2023-05-14T12:47:46;275.47;;;202.27;;
48481;SDS011;34284;48.278;16.378;2023-05-14T12:50:12;257.30;;;192.93;;
48481;SDS011;34284;48.278;16.378;2023-05-14T12:52:39;254.03;;;193.03;;
48481;SDS011;34284;48.278;16.378;2023-05-14T12:55:05;264.53;;;190.07;;
48481;SDS011;34284;48.278;16.378;2023-05-14T12:57:32;268.13;;;195.20;;
48481;SDS011;34284;48.278;16.378;2023-05-14T12:59:59;273.17;;;207.07;;
48481;SDS011;34284;48.278;16.378;2023-05-14T13:02:25;267.63;;;194.10;;
48481;SDS011;34284;48.278;16.378;2023-05-14T13:04:51;257.67;;;196.63;;
48481;SDS011;34284;48.278;16.378;2023-05-14T13:07:17;262.20;;;194.73;;
48481;SDS011;34284;48.278;16.378;2023-05-14T13:09:43;262.10;;;201.40;;
48481;SDS011;34284;48.278;16.378;2023-05-14T13:12:09;249.47;;;198.23;;
48481;SDS011;34284;48.278;16.378;2023-05-14T13:14:35;251.90;;;188.77;;
48481;SDS011;34284;48.278;16.378;2023-05-14T13:17:01;261.77;;;195.13;;
48481;SDS011;34284;48.278;16.378;2023-05-14T13:19:27;258.47;;;189.97;;
48481;SDS011;34284;48.278;16.378;2023-05-14T13:21:53;254.33;;;196.37;;
48481;SDS011;34284;48.278;16.378;2023-05-14T13:24:19;253.77;;;192.10;;
48481;SDS011;34284;48.278;16.378;2023-05-14T13:26:45;263.53;;;193.20;;
48481;SDS011;34284;48.278;16.378;2023-05-14T13:29:11;265.97;;;197.47;;
48481;SDS011;34284;48.278;16.378;2023-05-14T13:31:37;255.87;;;192.97;;
48481;SDS011;34284;48.278;16.378;2023-05-14T13:34:03;240.77;;;190.43;;
48481;SDS011;34284;48.278;16.378;2023-05-14T13:36:29;250.60;;;195.30;;
48481;SDS011;34284;48.278;16.378;2023-05-14T13:38:56;266.70;;;191.53;;
48481;SDS011;34284;48.278;16.378;2023-05-14T13:41:22;258.33;;;194.27;;
48481;SDS011;34284;48.278;16.378;2023-05-14T13:43:48;283.73;;;197.10;;
48481;SDS011;34284;48.278;16.378;2023-05-14T13:46:14;266.17;;;200.27;;
48481;SDS011;34284;48.278;16.378;2023-05-14T13:48:40;266.27;;;203.70;;
48481;SDS011;34284;48.278;16.378;2023-05-14T13:51:06;267.13;;;202.50;;
48481;SDS011;34284;48.278;16.378;2023-05-14T13:53:32;275.43;;;206.83;;
48481;SDS011;34284;48.278;16.378;2023-05-14T13:55:58;257.37;;;194.70;;
48481;SDS011;34284;48.278;16.378;2023-05-14T13:58:25;272.07;;;197.20;;